createdAt,value
2022-11-13T00:01:17.654Z,95.89
2022-11-13T00:04:02.525Z,95.54
2022-11-13T00:06:47.872Z,96.06
2022-11-13T00:09:33.377Z,95.90
2022-11-13T00:12:18.447Z,95.55
2022-11-13T00:15:03.917Z,95.66
2022-11-13T00:17:48.991Z,95.44
2022-11-13T00:20:35.751Z,95.75
2022-11-13T00:23:20.922Z,96.37
2022-11-13T00:26:14.845Z,95.84
2022-11-13T00:29:01.914Z,96.04
2022-11-13T00:31:47.438Z,96.42
2022-11-13T00:34:46.990Z,96.07
2022-11-13T00:37:33.038Z,95.92
2022-11-13T00:40:18.122Z,96.13
2022-11-13T00:43:03.087Z,95.74
2022-11-13T00:45:48.001Z,95.61
2022-11-13T00:48:33.932Z,96.32
2022-11-13T00:51:19.728Z,96.14
2022-11-13T00:54:04.886Z,96.10
2022-11-13T00:56:50.231Z,96.39
2022-11-13T00:59:35.356Z,96.43
2022-11-13T01:02:20.694Z,95.99
2022-11-13T01:05:06.060Z,95.91
2022-11-13T01:07:51.104Z,96.06
2022-11-13T01:10:40.689Z,96.13
2022-11-13T01:13:25.848Z,96.85
2022-11-13T01:16:13.858Z,96.18
2022-11-13T01:18:59.138Z,96.80
2022-11-13T01:21:44.433Z,96.07
2022-11-13T01:24:30.926Z,96.07
2022-11-13T01:27:16.277Z,95.88
2022-11-13T01:30:01.277Z,96.33
2022-11-13T01:32:46.441Z,96.29
2022-11-13T01:35:31.476Z,95.47
2022-11-13T01:38:16.426Z,96.09
2022-11-13T01:41:01.931Z,96.00
2022-11-13T01:43:47.887Z,95.76
2022-11-13T01:46:33.890Z,96.09
2022-11-13T01:49:37.000Z,95.93
2022-11-13T01:52:41.142Z,96.45
2022-11-13T01:55:26.447Z,96.42
2022-11-13T01:58:13.274Z,96.10
2022-11-13T02:00:58.443Z,96.75
2022-11-13T02:03:43.664Z,96.51
2022-11-13T02:06:36.595Z,96.97
2022-11-13T02:09:26.520Z,96.57
2022-11-13T02:12:14.842Z,96.56
2022-11-13T02:15:02.347Z,96.13
2022-11-13T02:17:52.590Z,95.92
2022-11-13T02:21:03.160Z,96.27
2022-11-13T02:24:05.249Z,95.97
2022-11-13T02:26:53.890Z,96.06
2022-11-13T02:29:38.886Z,96.05
2022-11-13T02:32:24.181Z,95.77
2022-11-13T02:35:09.219Z,96.07
2022-11-13T02:38:02.335Z,96.48
2022-11-13T02:40:47.269Z,96.45
2022-11-13T02:43:32.427Z,96.47
2022-11-13T02:46:17.490Z,95.94
2022-11-13T02:49:02.989Z,96.04
2022-11-13T02:51:48.456Z,96.37
2022-11-13T02:54:33.627Z,95.99
2022-11-13T02:57:18.900Z,96.07
2022-11-13T03:00:07.972Z,96.44
2022-11-13T03:02:57.516Z,96.34
2022-11-13T03:05:42.650Z,96.51
2022-11-13T03:08:28.168Z,97.08
2022-11-13T03:11:13.639Z,96.61
2022-11-13T03:13:58.897Z,96.97
2022-11-13T03:16:44.173Z,96.72
2022-11-13T03:19:29.521Z,96.64
2022-11-13T03:22:14.621Z,96.72
2022-11-13T03:24:59.768Z,96.53
2022-11-13T03:27:45.092Z,96.82
2022-11-13T03:30:30.533Z,96.94
2022-11-13T03:33:15.986Z,96.78
2022-11-13T03:36:01.033Z,96.55
2022-11-13T03:38:46.138Z,97.35
2022-11-13T03:41:30.987Z,97.37
2022-11-13T03:44:16.187Z,97.24
2022-11-13T03:47:01.645Z,97.50
2022-11-13T03:49:46.907Z,97.17
2022-11-13T03:52:31.993Z,97.48
2022-11-13T03:55:16.961Z,97.25
2022-11-13T03:58:01.924Z,97.70
2022-11-13T04:00:47.800Z,97.73
2022-11-13T04:03:32.826Z,97.99
2022-11-13T04:06:18.228Z,97.92
2022-11-13T04:09:03.128Z,97.96
2022-11-13T04:11:48.491Z,97.98
2022-11-13T04:14:33.339Z,97.85
2022-11-13T04:17:18.882Z,97.94
2022-11-13T04:20:04.448Z,97.69
2022-11-13T04:22:49.391Z,97.63
2022-11-13T04:25:34.868Z,97.43
2022-11-13T04:28:20.055Z,97.38
2022-11-13T04:31:06.462Z,97.62
2022-11-13T04:33:51.749Z,97.11
2022-11-13T04:36:37.226Z,97.38
2022-11-13T04:39:22.193Z,96.94
2022-11-13T04:42:25.888Z,96.73
2022-11-13T04:45:11.243Z,96.87
2022-11-13T04:47:56.600Z,96.35
2022-11-13T04:50:41.800Z,96.50
2022-11-13T04:53:26.980Z,96.61
2022-11-13T04:56:11.827Z,96.14
2022-11-13T04:58:57.180Z,96.34
2022-11-13T05:01:42.366Z,96.41
2022-11-13T05:04:27.691Z,96.13
2022-11-13T05:07:13.067Z,96.16
2022-11-13T05:09:58.420Z,96.50
2022-11-13T05:12:43.716Z,96.45
2022-11-13T05:15:28.946Z,96.01
2022-11-13T05:18:14.407Z,96.20
2022-11-13T05:20:59.406Z,95.99
2022-11-13T05:23:44.686Z,95.66
2022-11-13T05:26:30.087Z,95.61
2022-11-13T05:29:15.286Z,95.56
2022-11-13T05:32:00.558Z,95.78
2022-11-13T05:34:45.651Z,95.91
2022-11-13T05:37:31.094Z,95.97
2022-11-13T05:40:16.494Z,95.77
2022-11-13T05:43:01.395Z,95.53
2022-11-13T05:45:46.613Z,95.40
2022-11-13T05:48:32.157Z,95.86
2022-11-13T05:51:21.123Z,95.82
2022-11-13T05:54:06.475Z,95.81
2022-11-13T05:56:51.677Z,95.87
2022-11-13T05:59:37.173Z,96.23
2022-11-13T06:02:22.526Z,96.74
2022-11-13T06:05:07.876Z,96.99
2022-11-13T06:07:52.877Z,97.42
2022-11-13T06:10:38.289Z,97.84
2022-11-13T06:13:23.397Z,97.43
2022-11-13T06:16:11.681Z,97.30
2022-11-13T06:18:59.522Z,97.37
2022-11-13T06:21:44.641Z,97.27
2022-11-13T06:24:29.726Z,97.10
2022-11-13T06:27:15.082Z,97.01
2022-11-13T06:30:00.217Z,97.41
2022-11-13T06:32:45.161Z,97.67
2022-11-13T06:35:30.829Z,97.95
2022-11-13T06:38:16.006Z,98.09
2022-11-13T06:41:02.068Z,98.37
2022-11-13T06:43:47.747Z,98.55
2022-11-13T06:46:32.851Z,98.32
2022-11-13T06:49:17.944Z,98.67
2022-11-13T06:52:03.101Z,98.79
2022-11-13T06:54:48.320Z,98.93
2022-11-13T06:57:33.430Z,98.66
2022-11-13T07:00:18.822Z,98.70
2022-11-13T07:03:03.890Z,99.13
2022-11-13T07:05:49.615Z,98.96
2022-11-13T07:08:34.960Z,99.22
2022-11-13T07:11:23.335Z,99.20
2022-11-13T07:14:10.920Z,99.53
2022-11-13T07:17:09.354Z,99.74
2022-11-13T07:19:55.430Z,99.68
2022-11-13T07:22:40.366Z,99.73
2022-11-13T07:25:27.091Z,99.92
2022-11-13T07:28:12.561Z,100.00
2022-11-13T07:30:58.951Z,100.00
2022-11-13T07:33:44.984Z,100.00
2022-11-13T07:36:30.014Z,100.00
2022-11-13T07:39:14.978Z,100.00
2022-11-13T07:42:00.224Z,99.97
2022-11-13T07:44:54.432Z,100.00
2022-11-13T07:47:40.710Z,100.00
2022-11-13T07:50:31.274Z,100.00
2022-11-13T07:53:17.356Z,100.00
2022-11-13T07:56:04.047Z,99.95
2022-11-13T07:58:49.839Z,99.89
2022-11-13T08:01:35.029Z,100.00
2022-11-13T08:04:20.213Z,99.79
2022-11-13T08:07:05.484Z,100.00
2022-11-13T08:09:50.952Z,99.78
2022-11-13T08:12:36.029Z,100.00
2022-11-13T08:15:20.987Z,100.00
2022-11-13T08:18:06.666Z,100.00
2022-11-13T08:20:51.668Z,100.00
2022-11-13T08:23:36.582Z,100.00
2022-11-13T08:26:22.545Z,100.00
2022-11-13T08:29:07.571Z,100.00
2022-11-13T08:31:52.697Z,100.00
2022-11-13T08:34:40.030Z,100.00
2022-11-13T08:37:25.165Z,100.00
2022-11-13T08:40:10.860Z,100.00
2022-11-13T08:43:00.639Z,100.00
2022-11-13T08:45:47.195Z,100.00
2022-11-13T08:48:32.554Z,100.00
2022-11-13T08:51:18.330Z,100.00
2022-11-13T08:54:03.721Z,100.00
2022-11-13T08:56:52.982Z,100.00
2022-11-13T08:59:41.046Z,100.00
2022-11-13T09:02:27.183Z,100.00
2022-11-13T09:05:12.505Z,100.00
2022-11-13T09:07:59.402Z,100.00
2022-11-13T09:10:44.861Z,100.00
2022-11-13T09:13:30.718Z,100.00
2022-11-13T09:16:15.724Z,100.00
2022-11-13T09:19:01.244Z,100.00
2022-11-13T09:21:47.156Z,100.00
2022-11-13T09:24:32.878Z,100.00
2022-11-13T09:27:18.391Z,100.00
2022-11-13T09:30:04.153Z,100.00
2022-11-13T09:32:54.406Z,100.00
2022-11-13T09:35:39.394Z,100.00
2022-11-13T09:38:24.618Z,100.00
2022-11-13T09:41:11.511Z,100.00
2022-11-13T09:44:01.612Z,100.00
2022-11-13T09:47:19.980Z,100.00
2022-11-13T09:50:11.011Z,100.00
2022-11-13T09:52:57.212Z,100.00
2022-11-13T09:56:17.174Z,100.00
2022-11-13T09:59:11.892Z,100.00
2022-11-13T10:02:30.229Z,100.00
2022-11-13T10:05:15.500Z,100.00
2022-11-13T10:08:06.249Z,100.00
2022-11-13T10:10:59.481Z,100.00
2022-11-13T10:13:49.214Z,100.00
2022-11-13T10:16:45.073Z,100.00
2022-11-13T10:19:40.397Z,100.00
2022-11-13T10:22:35.958Z,100.00
2022-11-13T10:25:28.676Z,100.00
2022-11-13T10:31:51.043Z,100.00
2022-11-13T10:34:36.025Z,100.00
2022-11-13T10:37:55.994Z,100.00
2022-11-13T10:40:41.362Z,100.00
2022-11-13T10:43:27.320Z,100.00
2022-11-13T10:46:19.309Z,100.00
2022-11-13T10:49:21.784Z,100.00
2022-11-13T10:52:47.766Z,100.00
2022-11-13T10:55:40.692Z,100.00
2022-11-13T10:58:26.512Z,99.67
2022-11-13T11:01:21.905Z,99.59
2022-11-13T11:04:20.278Z,99.48
2022-11-13T11:07:21.563Z,98.87
2022-11-13T11:10:29.879Z,97.35
2022-11-13T11:13:22.779Z,97.43
2022-11-13T11:16:10.550Z,96.31
2022-11-13T11:19:04.139Z,96.62
2022-11-13T11:21:53.499Z,96.81
2022-11-13T11:24:45.304Z,96.43
2022-11-13T11:27:39.951Z,96.39
2022-11-13T11:30:26.799Z,95.59
2022-11-13T11:33:35.518Z,94.98
2022-11-13T11:36:41.902Z,94.83
2022-11-13T11:39:50.437Z,94.83
2022-11-13T11:43:01.401Z,94.73
2022-11-13T11:45:47.343Z,94.80
2022-11-13T11:48:34.408Z,95.18
2022-11-13T11:51:31.212Z,94.86
2022-11-13T11:54:42.299Z,95.58
2022-11-13T11:57:55.298Z,95.85
2022-11-13T12:00:50.153Z,95.21
2022-11-13T12:04:16.091Z,94.52
2022-11-13T12:07:37.849Z,93.77
2022-11-13T12:10:43.118Z,93.81
2022-11-13T12:13:31.614Z,94.74
2022-11-13T12:16:28.053Z,94.98
2022-11-13T12:19:23.264Z,94.41
2022-11-13T12:22:25.818Z,94.63
2022-11-13T12:25:24.532Z,95.16
2022-11-13T12:28:13.412Z,95.20
2022-11-13T12:31:11.752Z,95.05
2022-11-13T12:34:06.220Z,95.47
2022-11-13T12:36:52.876Z,95.38
2022-11-13T12:40:01.489Z,95.62
2022-11-13T12:42:51.340Z,95.00
2022-11-13T12:45:36.564Z,94.59
2022-11-13T12:48:28.438Z,95.28
2022-11-13T12:51:18.480Z,94.89
2022-11-13T12:54:03.857Z,95.34
2022-11-13T12:56:49.271Z,95.43
2022-11-13T12:59:39.184Z,95.46
2022-11-13T13:03:06.981Z,95.17
2022-11-13T13:06:20.604Z,94.96
2022-11-13T13:09:18.669Z,95.21
2022-11-13T13:12:31.815Z,95.42
2022-11-13T13:15:39.874Z,95.60
2022-11-13T13:18:32.314Z,95.80
2022-11-13T13:21:19.472Z,96.35
2022-11-13T13:24:26.076Z,96.31
2022-11-13T13:27:30.128Z,96.41
2022-11-13T13:30:21.356Z,96.89
2022-11-13T13:33:22.194Z,96.80
2022-11-13T13:36:29.508Z,96.83
2022-11-13T13:45:26.811Z,97.22
2022-11-13T13:48:15.450Z,97.54
2022-11-13T13:51:02.096Z,97.95
2022-11-13T13:53:49.136Z,98.20
2022-11-13T13:56:40.139Z,98.13
2022-11-13T13:59:32.023Z,98.50
2022-11-13T14:02:19.824Z,98.66
2022-11-13T14:05:29.064Z,98.50
2022-11-13T14:08:19.195Z,98.62
2022-11-13T14:11:18.224Z,98.69
2022-11-13T14:14:21.470Z,99.16
2022-11-13T14:17:08.881Z,98.90
2022-11-13T14:19:55.683Z,99.75
2022-11-13T14:22:43.018Z,99.87
2022-11-13T14:25:29.232Z,99.69
2022-11-13T14:28:53.645Z,100.00
2022-11-13T14:31:39.111Z,100.00
2022-11-13T14:34:24.411Z,100.00
2022-11-13T14:37:33.011Z,100.00
2022-11-13T14:40:26.772Z,100.00
2022-11-13T14:43:30.947Z,100.00
2022-11-13T14:46:44.224Z,100.00
2022-11-13T14:49:35.756Z,100.00
2022-11-13T14:52:26.118Z,100.00
2022-11-13T14:55:23.641Z,100.00
2022-11-13T14:58:12.808Z,100.00
2022-11-13T15:00:59.797Z,100.00
2022-11-13T15:03:46.393Z,100.00
2022-11-13T15:06:38.053Z,100.00
2022-11-13T15:09:25.406Z,100.00
2022-11-13T15:12:12.284Z,100.00
2022-11-13T15:14:57.344Z,100.00
2022-11-13T15:17:44.744Z,100.00
2022-11-13T15:20:30.927Z,100.00
2022-11-13T15:23:16.649Z,100.00
2022-11-13T15:26:01.934Z,100.00
2022-11-13T15:28:47.230Z,100.00
2022-11-13T15:31:34.032Z,100.00
2022-11-13T15:34:19.212Z,100.00
2022-11-13T15:37:12.116Z,100.00
2022-11-13T15:39:57.313Z,100.00
2022-11-13T15:42:43.754Z,100.00
2022-11-13T15:45:28.907Z,100.00
2022-11-13T15:48:13.961Z,100.00
2022-11-13T15:50:59.209Z,100.00
2022-11-13T15:53:48.359Z,100.00
2022-11-13T15:56:33.685Z,100.00
2022-11-13T15:59:18.650Z,100.00
2022-11-13T16:02:04.065Z,100.00
2022-11-13T16:04:56.500Z,100.00
2022-11-13T16:07:42.607Z,100.00
2022-11-13T16:10:27.750Z,100.00
2022-11-13T16:13:13.168Z,100.00
2022-11-13T16:15:59.647Z,100.00
2022-11-13T16:18:45.029Z,100.00
2022-11-13T16:21:30.806Z,100.00
2022-11-13T16:24:18.793Z,100.00
2022-11-13T16:27:06.541Z,100.00
2022-11-13T16:29:51.965Z,100.00
2022-11-13T16:32:36.962Z,100.00
2022-11-13T16:35:22.077Z,100.00
2022-11-13T16:38:12.845Z,100.00
2022-11-13T16:40:58.036Z,99.84
2022-11-13T16:43:44.252Z,100.00
2022-11-13T16:46:29.295Z,99.40
2022-11-13T16:49:19.051Z,99.39
2022-11-13T16:52:05.054Z,99.05
2022-11-13T16:54:51.512Z,98.34
2022-11-13T16:57:37.601Z,98.92
2022-11-13T17:00:25.376Z,98.45
2022-11-13T17:03:10.452Z,98.23
2022-11-13T17:05:55.628Z,97.92
2022-11-13T17:08:41.070Z,98.01
2022-11-13T17:11:29.399Z,97.37
2022-11-13T17:14:14.397Z,97.09
2022-11-13T17:16:59.725Z,96.72
2022-11-13T17:19:44.708Z,96.67
2022-11-13T17:22:29.819Z,95.94
2022-11-13T17:25:16.891Z,96.66
2022-11-13T17:28:01.827Z,96.87
2022-11-13T17:30:47.172Z,96.37
2022-11-13T17:33:32.460Z,97.20
2022-11-13T17:36:17.824Z,96.79
2022-11-13T17:39:04.066Z,97.36
2022-11-13T17:41:50.632Z,97.95
2022-11-13T17:44:36.061Z,97.83
2022-11-13T17:47:21.385Z,98.14
2022-11-13T17:50:08.026Z,99.04
2022-11-13T17:52:53.328Z,99.10
2022-11-13T17:55:38.408Z,99.44
2022-11-13T17:58:24.654Z,99.60
2022-11-13T18:01:16.121Z,99.95
2022-11-13T18:04:01.359Z,100.00
2022-11-13T18:06:46.994Z,100.00
2022-11-13T18:09:32.679Z,100.00
2022-11-13T18:12:18.214Z,100.00
2022-11-13T18:15:04.597Z,100.00
2022-11-13T18:17:49.961Z,100.00
2022-11-13T18:20:38.438Z,100.00
2022-11-13T18:23:23.901Z,100.00
2022-11-13T18:26:19.331Z,100.00
2022-11-13T18:29:04.915Z,100.00
2022-11-13T18:31:50.119Z,100.00
2022-11-13T18:34:35.216Z,100.00
2022-11-13T18:37:20.415Z,100.00
2022-11-13T18:40:06.805Z,100.00
2022-11-13T18:42:52.032Z,100.00
2022-11-13T18:45:37.612Z,100.00
2022-11-13T18:48:23.105Z,100.00
2022-11-13T18:51:12.142Z,100.00
2022-11-13T18:53:57.300Z,100.00
2022-11-13T18:56:42.756Z,100.00
2022-11-13T18:59:28.437Z,100.00
2022-11-13T19:02:14.117Z,100.00
2022-11-13T19:04:59.544Z,100.00
2022-11-13T19:07:44.784Z,100.00
2022-11-13T19:10:30.384Z,100.00
2022-11-13T19:13:15.562Z,100.00
2022-11-13T19:16:05.870Z,100.00
2022-11-13T19:18:54.192Z,100.00
2022-11-13T19:21:39.212Z,100.00
2022-11-13T19:24:24.154Z,100.00
2022-11-13T19:27:09.389Z,100.00
2022-11-13T19:29:54.654Z,100.00
2022-11-13T19:32:39.911Z,100.00
2022-11-13T19:35:26.314Z,100.00
2022-11-13T19:38:11.619Z,100.00
2022-11-13T19:40:57.140Z,100.00
2022-11-13T19:43:42.234Z,100.00
2022-11-13T19:46:28.651Z,100.00
2022-11-13T19:49:13.762Z,100.00
2022-11-13T19:52:01.425Z,100.00
2022-11-13T19:54:46.859Z,100.00
2022-11-13T19:57:31.955Z,100.00
2022-11-13T20:00:17.927Z,100.00
2022-11-13T20:03:07.416Z,100.00
2022-11-13T20:06:01.030Z,100.00
2022-11-13T20:08:46.107Z,100.00
2022-11-13T20:11:31.477Z,100.00
2022-11-13T20:14:16.774Z,100.00
2022-11-13T20:17:01.701Z,100.00
2022-11-13T20:19:47.023Z,100.00
2022-11-13T20:22:32.384Z,100.00
2022-11-13T20:25:17.787Z,100.00
2022-11-13T20:28:02.783Z,100.00
2022-11-13T20:30:48.319Z,100.00
2022-11-13T20:33:34.918Z,100.00
2022-11-13T20:36:20.466Z,100.00
2022-11-13T20:39:09.103Z,100.00
2022-11-13T20:41:54.890Z,100.00
2022-11-13T20:44:40.158Z,100.00
2022-11-13T20:47:25.365Z,100.00
2022-11-13T20:50:11.591Z,100.00
2022-11-13T20:52:56.778Z,100.00
2022-11-13T20:55:43.105Z,100.00
2022-11-13T20:58:28.679Z,100.00
2022-11-13T21:01:16.882Z,100.00
2022-11-13T21:04:02.888Z,100.00
2022-11-13T21:06:48.435Z,100.00
2022-11-13T21:09:33.998Z,100.00
2022-11-13T21:12:19.330Z,100.00
2022-11-13T21:15:05.231Z,100.00
2022-11-13T21:17:51.447Z,100.00
2022-11-13T21:20:37.389Z,100.00
2022-11-13T21:23:22.953Z,100.00
2022-11-13T21:26:09.185Z,100.00
2022-11-13T21:28:56.277Z,100.00
2022-11-13T21:31:41.631Z,100.00
2022-11-13T21:34:26.570Z,100.00
2022-11-13T21:37:14.306Z,100.00
2022-11-13T21:39:59.804Z,100.00
2022-11-13T21:42:45.360Z,100.00
2022-11-13T21:45:33.512Z,100.00
2022-11-13T21:48:18.637Z,100.00
2022-11-13T21:51:04.173Z,100.00
2022-11-13T21:53:49.672Z,100.00
2022-11-13T21:56:36.629Z,100.00
2022-11-13T21:59:21.632Z,100.00
2022-11-13T22:02:10.448Z,100.00
2022-11-13T22:04:55.617Z,100.00
2022-11-13T22:07:40.718Z,100.00
2022-11-13T22:15:46.910Z,100.00
2022-11-13T22:18:31.724Z,100.00
2022-11-13T22:21:16.587Z,100.00
2022-11-13T22:24:01.823Z,100.00
2022-11-13T22:26:47.076Z,100.00
2022-11-13T22:29:31.448Z,100.00
2022-11-13T22:32:15.844Z,100.00
2022-11-13T22:41:00.134Z,100.00
2022-11-13T22:43:46.515Z,100.00
2022-11-13T22:46:32.783Z,100.00
2022-11-13T22:49:18.421Z,100.00
2022-11-13T22:52:03.143Z,100.00
2022-11-13T22:54:47.611Z,100.00
2022-11-13T23:00:21.791Z,100.00
2022-11-13T23:03:06.194Z,100.00
2022-11-13T23:05:50.693Z,100.00
2022-11-13T23:08:38.292Z,100.00
2022-11-13T23:14:09.928Z,100.00
2022-11-13T23:16:54.897Z,100.00
2022-11-13T23:19:39.875Z,100.00
2022-11-13T23:22:24.774Z,100.00
2022-11-13T23:25:10.115Z,100.00
2022-11-13T23:27:55.246Z,100.00
2022-11-13T23:30:40.511Z,100.00
2022-11-13T23:33:25.536Z,100.00
2022-11-13T23:36:12.498Z,100.00
2022-11-13T23:38:57.648Z,100.00
2022-11-13T23:41:42.492Z,100.00
2022-11-13T23:44:27.798Z,100.00
2022-11-13T23:47:12.775Z,100.00
2022-11-13T23:49:58.265Z,100.00
2022-11-13T23:52:43.524Z,100.00
2022-11-13T23:55:28.901Z,100.00
2022-11-13T23:58:15.767Z,100.00
